Other Surface Observations
Issued by NWS Missoula, MT

Home | Current Version | Previous Version | Text Only | Print | Product List | Glossary On
Versions: 1 2 3 4 5 6 7 8 9 10 11 12 13 14 15 16 17 18 19 20 21 22 23 24 25 26 27 28 29 30 31 32 33 34 35 36 37 38 39 40 41 42 43 44 45 46 47 48 49 50
000
SXUS55 KMSO 260823
OSOMSO
MONTANA AWOS SUMMARY
NATIONAL WEATHER SERVICE MISSOULA MT
123 AM MST MON JAN 26 2015

Montana AWOS Reports

SCOBEY      |K9S2 260755Z AUTO 00000KT 40SM 03/M03 A2988 RMK AO1 T00331027
LAUREL      |K6S8 260815Z AUTO 20011G15KT 40SM 05/M04 A3008 RMK AO1 T00501043
ROUNDUP     |KRPX 260815Z AUTO 24021G26KT 40SM 13/M04 A2995 RMK AO1 T01331038
MALTA       |KM75 260755Z AUTO 24007KT 40SM 05/M01 A2992 RMK AO1 T00501005




USA.gov is the U.S. government's official web portal to all federal, state and local government web resources and services.